Time;durP1;ratioP1;P1;durP2;ratioP2;P2;SDS_P1;SDS_P2;PMS_P1;PMS_P2;Temp;Humidity;BMP_temperature;BMP_pressure;BME280_temperature;BME280_humidity;BME280_pressure;Samples;Min_cycle;Max_cycle;Signal;HPM_P1;HPM_P2
2020/09/17 00:00:41;;;;;;;21.4;19.4;;;;;;;15.68;85.18164;95513.69;;;;
2020/09/17 00:01:41;;;;;;;21.4;19.4;;;;;;;15.68;85.18164;95513.69;;;;
2020/09/17 00:02:42;;;;;;;21.4;19.4;;;;;;;15.68;85.18164;95513.69;;;;
2020/09/17 00:03:42;;;;;;;23.1;20.25;;;;;;;15.58;85.89746;95523.13;;;;
2020/09/17 00:04:44;;;;;;;23.1;20.25;;;;;;;15.58;85.89746;95523.13;;;;
2020/09/17 00:05:44;;;;;;;23.1;20.25;;;;;;;15.58;85.89746;95523.13;;;;
2020/09/17 00:06:45;;;;;;;23.1;20.25;;;;;;;15.58;85.89746;95523.13;;;;
2020/09/17 00:07:46;;;;;;;23.1;20.25;;;;;;;15.58;85.89746;95523.13;;;;
2020/09/17 00:08:46;;;;;;;23.1;20.25;;;;;;;15.58;85.89746;95523.13;;;;
2020/09/17 00:09:47;;;;;;;23.1;20.25;;;;;;;15.58;85.89746;95523.13;;;;
2020/09/17 00:10:47;;;;;;;23.1;20.25;;;;;;;15.58;85.89746;95523.13;;;;
2020/09/17 00:11:48;;;;;;;23.1;20.25;;;;;;;15.58;85.89746;95523.13;;;;
2020/09/17 00:12:48;;;;;;;23.1;20.25;;;;;;;15.58;85.89746;95523.13;;;;
2020/09/17 00:13:49;;;;;;;23.1;20.25;;;;;;;15.58;85.89746;95523.13;;;;
2020/09/17 00:14:49;;;;;;;25.6;20.8;;;;;;;15.56;86.53027;95521.61;;;;
2020/09/17 00:15:50;;;;;;;25.6;20.8;;;;;;;15.56;86.53027;95521.61;;;;
2020/09/17 00:16:50;;;;;;;25.6;20.8;;;;;;;15.56;86.53027;95521.61;;;;
2020/09/17 00:17:51;;;;;;;25.6;20.8;;;;;;;15.56;86.53027;95521.61;;;;
2020/09/17 00:18:51;;;;;;;25.6;20.8;;;;;;;15.56;86.53027;95521.61;;;;
2020/09/17 00:19:52;;;;;;;25.6;20.8;;;;;;;15.56;86.53027;95521.61;;;;
2020/09/17 00:20:53;;;;;;;25.6;20.8;;;;;;;15.56;86.53027;95521.61;;;;
2020/09/17 00:21:53;;;;;;;25.6;20.8;;;;;;;15.56;86.53027;95521.61;;;;
2020/09/17 00:22:54;;;;;;;25.6;20.8;;;;;;;15.56;86.53027;95521.61;;;;
2020/09/17 00:23:54;;;;;;;25.6;20.8;;;;;;;15.56;86.53027;95521.61;;;;
2020/09/17 00:24:54;;;;;;;23.45;21.15;;;;;;;15.48;87.00879;95528.5;;;;
2020/09/17 00:25:55;;;;;;;23.45;21.15;;;;;;;15.48;87.00879;95528.5;;;;
2020/09/17 00:26:55;;;;;;;23.45;21.15;;;;;;;15.48;87.00879;95528.5;;;;
2020/09/17 00:27:56;;;;;;;23.45;21.15;;;;;;;15.48;87.00879;95528.5;;;;
2020/09/17 00:28:57;;;;;;;23.45;21.15;;;;;;;15.48;87.00879;95528.5;;;;
2020/09/17 00:29:57;;;;;;;23.45;21.15;;;;;;;15.48;87.00879;95528.5;;;;
2020/09/17 00:30:58;;;;;;;23.45;21.15;;;;;;;15.48;87.00879;95528.5;;;;
2020/09/17 00:31:58;;;;;;;23.45;21.15;;;;;;;15.48;87.00879;95528.5;;;;
2020/09/17 00:32:59;;;;;;;23.45;21.15;;;;;;;15.48;87.00879;95528.5;;;;
2020/09/17 00:33:59;;;;;;;23.45;21.15;;;;;;;15.48;87.00879;95528.5;;;;
2020/09/17 00:35:00;;;;;;;23.45;21.15;;;;;;;15.48;87.00879;95528.5;;;;
2020/09/17 00:36:00;;;;;;;22.4;20.2;;;;;;;15.45;87.45801;95536.63;;;;
2020/09/17 00:37:00;;;;;;;22.4;20.2;;;;;;;15.45;87.45801;95536.63;;;;
2020/09/17 00:38:01;;;;;;;22.4;20.2;;;;;;;15.45;87.45801;95536.63;;;;
2020/09/17 00:39:01;;;;;;;22.4;20.2;;;;;;;15.45;87.45801;95536.63;;;;
2020/09/17 00:40:02;;;;;;;22.4;20.2;;;;;;;15.45;87.45801;95536.63;;;;
2020/09/17 00:41:02;;;;;;;22.4;20.2;;;;;;;15.45;87.45801;95536.63;;;;
2020/09/17 00:42:03;;;;;;;22.4;20.2;;;;;;;15.45;87.45801;95536.63;;;;
2020/09/17 00:43:03;;;;;;;22.4;20.2;;;;;;;15.45;87.45801;95536.63;;;;
2020/09/17 00:44:04;;;;;;;22.4;20.2;;;;;;;15.45;87.45801;95536.63;;;;
2020/09/17 00:45:04;;;;;;;22.4;20.2;;;;;;;15.45;87.45801;95536.63;;;;
2020/09/17 00:46:05;;;;;;;23.6;20.35;;;;;;;15.36;87.92285;95531.5;;;;
2020/09/17 00:47:05;;;;;;;23.6;20.35;;;;;;;15.36;87.92285;95531.5;;;;
2020/09/17 00:48:06;;;;;;;23.6;20.35;;;;;;;15.36;87.92285;95531.5;;;;
2020/09/17 00:49:06;;;;;;;23.6;20.35;;;;;;;15.36;87.92285;95531.5;;;;
2020/09/17 00:50:07;;;;;;;23.6;20.35;;;;;;;15.36;87.92285;95531.5;;;;
2020/09/17 00:51:07;;;;;;;23.6;20.35;;;;;;;15.36;87.92285;95531.5;;;;
2020/09/17 00:52:08;;;;;;;23.6;20.35;;;;;;;15.36;87.92285;95531.5;;;;
2020/09/17 00:53:09;;;;;;;23.6;20.35;;;;;;;15.36;87.92285;95531.5;;;;
2020/09/17 00:54:09;;;;;;;23.6;20.35;;;;;;;15.36;87.92285;95531.5;;;;
2020/09/17 00:55:10;;;;;;;23.6;20.35;;;;;;;15.36;87.92285;95531.5;;;;
2020/09/17 00:56:10;;;;;;;23.6;20.35;;;;;;;15.36;87.92285;95531.5;;;;
2020/09/17 00:57:11;;;;;;;22;19.8;;;;;;;15.3;88.40723;95527.09;;;;
2020/09/17 00:58:11;;;;;;;22;19.8;;;;;;;15.3;88.40723;95527.09;;;;
2020/09/17 00:59:12;;;;;;;22;19.8;;;;;;;15.3;88.40723;95527.09;;;;
2020/09/17 01:00:12;;;;;;;22;19.8;;;;;;;15.3;88.40723;95527.09;;;;
2020/09/17 01:01:13;;;;;;;22;19.8;;;;;;;15.3;88.40723;95527.09;;;;
2020/09/17 01:02:13;;;;;;;22;19.8;;;;;;;15.3;88.40723;95527.09;;;;
2020/09/17 01:03:14;;;;;;;22;19.8;;;;;;;15.3;88.40723;95527.09;;;;
2020/09/17 01:04:14;;;;;;;22;19.8;;;;;;;15.3;88.40723;95527.09;;;;
2020/09/17 01:05:15;;;;;;;22;19.8;;;;;;;15.3;88.40723;95527.09;;;;
2020/09/17 01:06:15;;;;;;;22;19.8;;;;;;;15.3;88.40723;95527.09;;;;
2020/09/17 01:07:16;;;;;;;24.65;22.3;;;;;;;15.22;88.94141;95541.6;;;;
2020/09/17 01:08:16;;;;;;;24.65;22.3;;;;;;;15.22;88.94141;95541.6;;;;
2020/09/17 01:09:17;;;;;;;24.65;22.3;;;;;;;15.22;88.94141;95541.6;;;;
2020/09/17 01:10:17;;;;;;;24.65;22.3;;;;;;;15.22;88.94141;95541.6;;;;
2020/09/17 01:11:18;;;;;;;24.65;22.3;;;;;;;15.22;88.94141;95541.6;;;;
2020/09/17 01:12:18;;;;;;;24.65;22.3;;;;;;;15.22;88.94141;95541.6;;;;
2020/09/17 01:13:19;;;;;;;24.65;22.3;;;;;;;15.22;88.94141;95541.6;;;;
2020/09/17 01:14:19;;;;;;;24.65;22.3;;;;;;;15.22;88.94141;95541.6;;;;
2020/09/17 01:15:20;;;;;;;24.65;22.3;;;;;;;15.22;88.94141;95541.6;;;;
2020/09/17 01:16:20;;;;;;;24.65;22.3;;;;;;;15.22;88.94141;95541.6;;;;
2020/09/17 01:17:21;;;;;;;24.65;22.3;;;;;;;15.22;88.94141;95541.6;;;;
2020/09/17 01:18:21;;;;;;;25.8;23.35;;;;;;;15.26;89.75781;95539.43;;;;
2020/09/17 01:19:22;;;;;;;25.8;23.35;;;;;;;15.26;89.75781;95539.43;;;;
2020/09/17 01:20:28;;;;;;;25.8;23.35;;;;;;;15.26;89.75781;95539.43;;;;
2020/09/17 01:21:28;;;;;;;25.8;23.35;;;;;;;15.26;89.75781;95539.43;;;;
2020/09/17 01:22:29;;;;;;;25.8;23.35;;;;;;;15.26;89.75781;95539.43;;;;
2020/09/17 01:23:29;;;;;;;25.8;23.35;;;;;;;15.26;89.75781;95539.43;;;;
2020/09/17 01:24:30;;;;;;;25.8;23.35;;;;;;;15.26;89.75781;95539.43;;;;
2020/09/17 01:25:30;;;;;;;25.8;23.35;;;;;;;15.26;89.75781;95539.43;;;;
2020/09/17 01:26:31;;;;;;;25.8;23.35;;;;;;;15.26;89.75781;95539.43;;;;
2020/09/17 01:27:32;;;;;;;25.8;23.35;;;;;;;15.26;89.75781;95539.43;;;;
2020/09/17 01:28:32;;;;;;;24.7;22.25;;;;;;;15.29;90.12793;95539.48;;;;
2020/09/17 01:29:33;;;;;;;24.7;22.25;;;;;;;15.29;90.12793;95539.48;;;;
2020/09/17 01:30:34;;;;;;;24.7;22.25;;;;;;;15.29;90.12793;95539.48;;;;
2020/09/17 01:31:34;;;;;;;24.7;22.25;;;;;;;15.29;90.12793;95539.48;;;;
2020/09/17 01:32:35;;;;;;;24.7;22.25;;;;;;;15.29;90.12793;95539.48;;;;
2020/09/17 01:33:35;;;;;;;24.7;22.25;;;;;;;15.29;90.12793;95539.48;;;;
2020/09/17 01:34:36;;;;;;;24.7;22.25;;;;;;;15.29;90.12793;95539.48;;;;
2020/09/17 01:35:37;;;;;;;24.7;22.25;;;;;;;15.29;90.12793;95539.48;;;;
2020/09/17 01:36:38;;;;;;;24.7;22.25;;;;;;;15.29;90.12793;95539.48;;;;
2020/09/17 01:37:38;;;;;;;24.7;22.25;;;;;;;15.29;90.12793;95539.48;;;;
2020/09/17 01:38:39;;;;;;;24.7;22.25;;;;;;;15.29;90.12793;95539.48;;;;
2020/09/17 01:39:39;;;;;;;26.1;23.4;;;;;;;15.47;90.34766;95537.34;;;;
2020/09/17 01:40:40;;;;;;;26.1;23.4;;;;;;;15.47;90.34766;95537.34;;;;
2020/09/17 01:41:40;;;;;;;26.1;23.4;;;;;;;15.47;90.34766;95537.34;;;;
2020/09/17 01:42:41;;;;;;;26.1;23.4;;;;;;;15.47;90.34766;95537.34;;;;
2020/09/17 01:43:41;;;;;;;26.1;23.4;;;;;;;15.47;90.34766;95537.34;;;;
2020/09/17 01:44:42;;;;;;;26.1;23.4;;;;;;;15.47;90.34766;95537.34;;;;
2020/09/17 01:45:42;;;;;;;26.1;23.4;;;;;;;15.47;90.34766;95537.34;;;;
2020/09/17 01:46:43;;;;;;;26.1;23.4;;;;;;;15.47;90.34766;95537.34;;;;
2020/09/17 01:47:43;;;;;;;26.1;23.4;;;;;;;15.47;90.34766;95537.34;;;;
2020/09/17 01:48:44;;;;;;;26.1;23.4;;;;;;;15.47;90.34766;95537.34;;;;
2020/09/17 01:49:44;;;;;;;26.1;23.4;;;;;;;15.47;90.34766;95537.34;;;;
2020/09/17 01:50:45;;;;;;;25.45;23;;;;;;;15.44;90.62207;95521.94;;;;
2020/09/17 01:51:45;;;;;;;25.45;23;;;;;;;15.44;90.62207;95521.94;;;;
2020/09/17 01:52:46;;;;;;;25.45;23;;;;;;;15.44;90.62207;95521.94;;;;
2020/09/17 01:53:46;;;;;;;25.45;23;;;;;;;15.44;90.62207;95521.94;;;;
2020/09/17 01:54:47;;;;;;;25.45;23;;;;;;;15.44;90.62207;95521.94;;;;
2020/09/17 01:55:47;;;;;;;25.45;23;;;;;;;15.44;90.62207;95521.94;;;;
2020/09/17 01:56:48;;;;;;;25.45;23;;;;;;;15.44;90.62207;95521.94;;;;
2020/09/17 01:57:48;;;;;;;25.45;23;;;;;;;15.44;90.62207;95521.94;;;;
2020/09/17 01:58:49;;;;;;;25.45;23;;;;;;;15.44;90.62207;95521.94;;;;
2020/09/17 01:59:49;;;;;;;25.45;23;;;;;;;15.44;90.62207;95521.94;;;;
2020/09/17 02:00:50;;;;;;;27.6;24.85;;;;;;;15.44;91.09766;95520.04;;;;
2020/09/17 02:01:50;;;;;;;27.6;24.85;;;;;;;15.44;91.09766;95520.04;;;;
2020/09/17 02:02:51;;;;;;;27.6;24.85;;;;;;;15.44;91.09766;95520.04;;;;
2020/09/17 02:03:51;;;;;;;27.6;24.85;;;;;;;15.44;91.09766;95520.04;;;;
2020/09/17 02:04:52;;;;;;;27.6;24.85;;;;;;;15.44;91.09766;95520.04;;;;
2020/09/17 02:05:52;;;;;;;27.6;24.85;;;;;;;15.44;91.09766;95520.04;;;;
2020/09/17 02:06:53;;;;;;;27.6;24.85;;;;;;;15.44;91.09766;95520.04;;;;
2020/09/17 02:07:53;;;;;;;27.6;24.85;;;;;;;15.44;91.09766;95520.04;;;;
2020/09/17 02:08:54;;;;;;;27.6;24.85;;;;;;;15.44;91.09766;95520.04;;;;
2020/09/17 02:09:54;;;;;;;27.6;24.85;;;;;;;15.44;91.09766;95520.04;;;;
2020/09/17 02:10:55;;;;;;;27.6;24.85;;;;;;;15.44;91.09766;95520.04;;;;
2020/09/17 02:11:55;;;;;;;26.5;23.9;;;;;;;15.36;91.48926;95518.73;;;;
2020/09/17 02:12:56;;;;;;;26.5;23.9;;;;;;;15.36;91.48926;95518.73;;;;
2020/09/17 02:13:56;;;;;;;26.5;23.9;;;;;;;15.36;91.48926;95518.73;;;;
2020/09/17 02:14:57;;;;;;;26.5;23.9;;;;;;;15.36;91.48926;95518.73;;;;
2020/09/17 02:15:57;;;;;;;26.5;23.9;;;;;;;15.36;91.48926;95518.73;;;;
2020/09/17 02:16:58;;;;;;;26.5;23.9;;;;;;;15.36;91.48926;95518.73;;;;
2020/09/17 02:17:58;;;;;;;26.5;23.9;;;;;;;15.36;91.48926;95518.73;;;;
2020/09/17 02:18:59;;;;;;;26.5;23.9;;;;;;;15.36;91.48926;95518.73;;;;
2020/09/17 02:19:59;;;;;;;26.5;23.9;;;;;;;15.36;91.48926;95518.73;;;;
2020/09/17 02:21:00;;;;;;;26.5;23.9;;;;;;;15.36;91.48926;95518.73;;;;
2020/09/17 02:22:00;;;;;;;26.45;23.9;;;;;;;15.3;91.7998;95509.28;;;;
2020/09/17 02:23:01;;;;;;;26.45;23.9;;;;;;;15.3;91.7998;95509.28;;;;
2020/09/17 02:24:01;;;;;;;26.45;23.9;;;;;;;15.3;91.7998;95509.28;;;;
2020/09/17 02:25:02;;;;;;;26.45;23.9;;;;;;;15.3;91.7998;95509.28;;;;
2020/09/17 02:26:02;;;;;;;26.45;23.9;;;;;;;15.3;91.7998;95509.28;;;;
2020/09/17 02:27:03;;;;;;;26.45;23.9;;;;;;;15.3;91.7998;95509.28;;;;
2020/09/17 02:28:03;;;;;;;26.45;23.9;;;;;;;15.3;91.7998;95509.28;;;;
2020/09/17 02:29:04;;;;;;;26.45;23.9;;;;;;;15.3;91.7998;95509.28;;;;
2020/09/17 02:30:05;;;;;;;26.45;23.9;;;;;;;15.3;91.7998;95509.28;;;;
2020/09/17 02:31:05;;;;;;;26.45;23.9;;;;;;;15.3;91.7998;95509.28;;;;
2020/09/17 02:32:06;;;;;;;26.45;23.9;;;;;;;15.3;91.7998;95509.28;;;;
2020/09/17 02:33:06;;;;;;;27.35;24.55;;;;;;;15.2;92.19824;95513.83;;;;
2020/09/17 02:34:07;;;;;;;27.35;24.55;;;;;;;15.2;92.19824;95513.83;;;;
2020/09/17 02:35:08;;;;;;;27.35;24.55;;;;;;;15.2;92.19824;95513.83;;;;
2020/09/17 02:36:08;;;;;;;27.35;24.55;;;;;;;15.2;92.19824;95513.83;;;;
2020/09/17 02:37:09;;;;;;;27.35;24.55;;;;;;;15.2;92.19824;95513.83;;;;
2020/09/17 02:38:09;;;;;;;27.35;24.55;;;;;;;15.2;92.19824;95513.83;;;;
2020/09/17 02:39:10;;;;;;;27.35;24.55;;;;;;;15.2;92.19824;95513.83;;;;
2020/09/17 02:40:10;;;;;;;27.35;24.55;;;;;;;15.2;92.19824;95513.83;;;;
2020/09/17 02:41:11;;;;;;;27.35;24.55;;;;;;;15.2;92.19824;95513.83;;;;
2020/09/17 02:42:11;;;;;;;27.35;24.55;;;;;;;15.2;92.19824;95513.83;;;;
2020/09/17 02:43:12;;;;;;;27.35;24.55;;;;;;;15.2;92.19824;95513.83;;;;
2020/09/17 02:44:12;;;;;;;26.35;23.65;;;;;;;15.12;92.49414;95516.47;;;;
2020/09/17 02:45:13;;;;;;;26.35;23.65;;;;;;;15.12;92.49414;95516.47;;;;
2020/09/17 02:46:13;;;;;;;26.35;23.65;;;;;;;15.12;92.49414;95516.47;;;;
2020/09/17 02:47:14;;;;;;;26.35;23.65;;;;;;;15.12;92.49414;95516.47;;;;
2020/09/17 02:48:14;;;;;;;26.35;23.65;;;;;;;15.12;92.49414;95516.47;;;;
2020/09/17 02:49:15;;;;;;;26.35;23.65;;;;;;;15.12;92.49414;95516.47;;;;
2020/09/17 02:50:16;;;;;;;26.35;23.65;;;;;;;15.12;92.49414;95516.47;;;;
2020/09/17 02:51:16;;;;;;;26.35;23.65;;;;;;;15.12;92.49414;95516.47;;;;
2020/09/17 02:52:17;;;;;;;26.35;23.65;;;;;;;15.12;92.49414;95516.47;;;;
2020/09/17 02:53:18;;;;;;;26.35;23.65;;;;;;;15.12;92.49414;95516.47;;;;
2020/09/17 02:54:18;;;;;;;27.25;24.45;;;;;;;14.94;92.73633;95511.41;;;;
2020/09/17 02:55:19;;;;;;;27.25;24.45;;;;;;;14.94;92.73633;95511.41;;;;
2020/09/17 02:56:19;;;;;;;27.25;24.45;;;;;;;14.94;92.73633;95511.41;;;;
2020/09/17 02:57:19;;;;;;;27.25;24.45;;;;;;;14.94;92.73633;95511.41;;;;
2020/09/17 02:58:20;;;;;;;27.25;24.45;;;;;;;14.94;92.73633;95511.41;;;;
2020/09/17 02:59:20;;;;;;;27.25;24.45;;;;;;;14.94;92.73633;95511.41;;;;
2020/09/17 03:00:21;;;;;;;27.25;24.45;;;;;;;14.94;92.73633;95511.41;;;;
2020/09/17 03:01:21;;;;;;;27.25;24.45;;;;;;;14.94;92.73633;95511.41;;;;
2020/09/17 03:02:22;;;;;;;27.25;24.45;;;;;;;14.94;92.73633;95511.41;;;;
2020/09/17 03:03:22;;;;;;;27.25;24.45;;;;;;;14.94;92.73633;95511.41;;;;
2020/09/17 03:04:23;;;;;;;27.25;24.45;;;;;;;14.94;92.73633;95511.41;;;;
2020/09/17 03:05:23;;;;;;;25.5;23.05;;;;;;;14.82;93.14941;95514.4;;;;
2020/09/17 03:06:24;;;;;;;25.5;23.05;;;;;;;14.82;93.14941;95514.4;;;;
2020/09/17 03:07:24;;;;;;;25.5;23.05;;;;;;;14.82;93.14941;95514.4;;;;
2020/09/17 03:08:24;;;;;;;25.5;23.05;;;;;;;14.82;93.14941;95514.4;;;;
2020/09/17 03:09:25;;;;;;;25.5;23.05;;;;;;;14.82;93.14941;95514.4;;;;
2020/09/17 03:10:25;;;;;;;25.5;23.05;;;;;;;14.82;93.14941;95514.4;;;;
2020/09/17 03:11:26;;;;;;;25.5;23.05;;;;;;;14.82;93.14941;95514.4;;;;
2020/09/17 03:12:26;;;;;;;25.5;23.05;;;;;;;14.82;93.14941;95514.4;;;;
2020/09/17 03:13:27;;;;;;;25.5;23.05;;;;;;;14.82;93.14941;95514.4;;;;
2020/09/17 03:14:28;;;;;;;25.5;23.05;;;;;;;14.82;93.14941;95514.4;;;;
2020/09/17 03:15:28;;;;;;;26.75;23.95;;;;;;;14.68;93.49609;95520.92;;;;
2020/09/17 03:16:29;;;;;;;26.75;23.95;;;;;;;14.68;93.49609;95520.92;;;;
2020/09/17 03:17:29;;;;;;;26.75;23.95;;;;;;;14.68;93.49609;95520.92;;;;
2020/09/17 03:18:30;;;;;;;26.75;23.95;;;;;;;14.68;93.49609;95520.92;;;;
2020/09/17 03:19:31;;;;;;;26.75;23.95;;;;;;;14.68;93.49609;95520.92;;;;
2020/09/17 03:20:31;;;;;;;26.75;23.95;;;;;;;14.68;93.49609;95520.92;;;;
2020/09/17 03:21:32;;;;;;;26.75;23.95;;;;;;;14.68;93.49609;95520.92;;;;
2020/09/17 03:22:33;;;;;;;26.75;23.95;;;;;;;14.68;93.49609;95520.92;;;;
2020/09/17 03:23:33;;;;;;;26.75;23.95;;;;;;;14.68;93.49609;95520.92;;;;
2020/09/17 03:24:34;;;;;;;26.75;23.95;;;;;;;14.68;93.49609;95520.92;;;;
2020/09/17 03:25:34;;;;;;;26.75;23.95;;;;;;;14.68;93.49609;95520.92;;;;
2020/09/17 03:26:34;;;;;;;27.45;24.55;;;;;;;14.59;93.875;95515.09;;;;
2020/09/17 03:27:35;;;;;;;27.45;24.55;;;;;;;14.59;93.875;95515.09;;;;
2020/09/17 03:28:35;;;;;;;27.45;24.55;;;;;;;14.59;93.875;95515.09;;;;
2020/09/17 03:29:36;;;;;;;27.45;24.55;;;;;;;14.59;93.875;95515.09;;;;
2020/09/17 03:30:36;;;;;;;27.45;24.55;;;;;;;14.59;93.875;95515.09;;;;
2020/09/17 03:31:37;;;;;;;27.45;24.55;;;;;;;14.59;93.875;95515.09;;;;
2020/09/17 03:32:38;;;;;;;27.45;24.55;;;;;;;14.59;93.875;95515.09;;;;
2020/09/17 03:33:38;;;;;;;27.45;24.55;;;;;;;14.59;93.875;95515.09;;;;
2020/09/17 03:34:39;;;;;;;27.45;24.55;;;;;;;14.59;93.875;95515.09;;;;
2020/09/17 03:35:39;;;;;;;27.45;24.55;;;;;;;14.59;93.875;95515.09;;;;
2020/09/17 03:36:40;;;;;;;27.3;24.35;;;;;;;14.43;94.30273;95517.36;;;;
2020/09/17 03:37:41;;;;;;;27.3;24.35;;;;;;;14.43;94.30273;95517.36;;;;
2020/09/17 03:38:41;;;;;;;27.3;24.35;;;;;;;14.43;94.30273;95517.36;;;;
2020/09/17 03:39:42;;;;;;;27.3;24.35;;;;;;;14.43;94.30273;95517.36;;;;
2020/09/17 03:40:42;;;;;;;27.3;24.35;;;;;;;14.43;94.30273;95517.36;;;;
2020/09/17 03:41:43;;;;;;;27.3;24.35;;;;;;;14.43;94.30273;95517.36;;;;
2020/09/17 03:42:43;;;;;;;27.3;24.35;;;;;;;14.43;94.30273;95517.36;;;;
2020/09/17 03:43:44;;;;;;;27.3;24.35;;;;;;;14.43;94.30273;95517.36;;;;
2020/09/17 03:44:44;;;;;;;27.3;24.35;;;;;;;14.43;94.30273;95517.36;;;;
2020/09/17 03:45:45;;;;;;;27.3;24.35;;;;;;;14.43;94.30273;95517.36;;;;
2020/09/17 03:46:46;;;;;;;27.3;24.35;;;;;;;14.43;94.30273;95517.36;;;;
2020/09/17 03:47:46;;;;;;;26.35;23.6;;;;;;;14.37;94.67871;95502.89;;;;
2020/09/17 03:48:47;;;;;;;26.35;23.6;;;;;;;14.37;94.67871;95502.89;;;;
2020/09/17 03:49:47;;;;;;;26.35;23.6;;;;;;;14.37;94.67871;95502.89;;;;
2020/09/17 03:50:48;;;;;;;26.35;23.6;;;;;;;14.37;94.67871;95502.89;;;;
2020/09/17 03:51:49;;;;;;;26.35;23.6;;;;;;;14.37;94.67871;95502.89;;;;
2020/09/17 03:52:49;;;;;;;26.35;23.6;;;;;;;14.37;94.67871;95502.89;;;;
2020/09/17 03:54:02;;;;;;;26.35;23.6;;;;;;;14.37;94.67871;95502.89;;;;
2020/09/17 03:55:02;;;;;;;26.35;23.6;;;;;;;14.37;94.67871;95502.89;;;;
2020/09/17 03:56:04;;;;;;;26.35;23.6;;;;;;;14.37;94.67871;95502.89;;;;
2020/09/17 03:57:10;;;;;;;26.35;23.6;;;;;;;14.37;94.67871;95502.89;;;;
2020/09/17 03:58:10;;;;;;;25.15;22.65;;;;;;;14.29;95.07617;95510.14;;;;
2020/09/17 03:59:11;;;;;;;25.15;22.65;;;;;;;14.29;95.07617;95510.14;;;;
2020/09/17 04:00:12;;;;;;;25.15;22.65;;;;;;;14.29;95.07617;95510.14;;;;
2020/09/17 04:01:12;;;;;;;25.15;22.65;;;;;;;14.29;95.07617;95510.14;;;;
2020/09/17 04:02:13;;;;;;;25.15;22.65;;;;;;;14.29;95.07617;95510.14;;;;
2020/09/17 04:03:13;;;;;;;25.15;22.65;;;;;;;14.29;95.07617;95510.14;;;;
2020/09/17 04:04:14;;;;;;;25.15;22.65;;;;;;;14.29;95.07617;95510.14;;;;
2020/09/17 04:05:14;;;;;;;25.15;22.65;;;;;;;14.29;95.07617;95510.14;;;;
2020/09/17 04:06:16;;;;;;;25.15;22.65;;;;;;;14.29;95.07617;95510.14;;;;
2020/09/17 04:07:16;;;;;;;25.15;22.65;;;;;;;14.29;95.07617;95510.14;;;;
2020/09/17 04:08:17;;;;;;;25.15;22.65;;;;;;;14.29;95.07617;95510.14;;;;
2020/09/17 04:09:18;;;;;;;26.8;23.95;;;;;;;14.35;95.35938;95521.89;;;;
2020/09/17 04:10:18;;;;;;;26.8;23.95;;;;;;;14.35;95.35938;95521.89;;;;
2020/09/17 04:11:19;;;;;;;26.8;23.95;;;;;;;14.35;95.35938;95521.89;;;;
2020/09/17 04:12:20;;;;;;;26.8;23.95;;;;;;;14.35;95.35938;95521.89;;;;
2020/09/17 04:13:21;;;;;;;26.8;23.95;;;;;;;14.35;95.35938;95521.89;;;;
2020/09/17 04:14:23;;;;;;;26.8;23.95;;;;;;;14.35;95.35938;95521.89;;;;
2020/09/17 04:15:23;;;;;;;26.8;23.95;;;;;;;14.35;95.35938;95521.89;;;;
2020/09/17 04:16:26;;;;;;;26.8;23.95;;;;;;;14.35;95.35938;95521.89;;;;
2020/09/17 04:17:26;;;;;;;26.8;23.95;;;;;;;14.35;95.35938;95521.89;;;;
2020/09/17 04:18:27;;;;;;;26.8;23.95;;;;;;;14.35;95.35938;95521.89;;;;
2020/09/17 04:19:27;;;;;;;29;26.15;;;;;;;14.49;95.61328;95537.67;;;;
2020/09/17 04:20:28;;;;;;;29;26.15;;;;;;;14.49;95.61328;95537.67;;;;
2020/09/17 04:21:33;;;;;;;29;26.15;;;;;;;14.49;95.61328;95537.67;;;;
2020/09/17 04:22:34;;;;;;;29;26.15;;;;;;;14.49;95.61328;95537.67;;;;
2020/09/17 04:23:36;;;;;;;29;26.15;;;;;;;14.49;95.61328;95537.67;;;;
2020/09/17 04:24:36;;;;;;;29;26.15;;;;;;;14.49;95.61328;95537.67;;;;
2020/09/17 04:25:37;;;;;;;29;26.15;;;;;;;14.49;95.61328;95537.67;;;;
2020/09/17 04:26:50;;;;;;;29;26.15;;;;;;;14.49;95.61328;95537.67;;;;
2020/09/17 04:27:51;;;;;;;29;26.15;;;;;;;14.49;95.61328;95537.67;;;;
2020/09/17 04:28:52;;;;;;;29;26.15;;;;;;;14.49;95.61328;95537.67;;;;
2020/09/17 04:29:52;;;;;;;29;26.15;;;;;;;14.49;95.61328;95537.67;;;;
2020/09/17 04:30:53;;;;;;;25.8;23.3;;;;;;;14.78;95.67773;95546.72;;;;
2020/09/17 04:32:07;;;;;;;25.8;23.3;;;;;;;14.78;95.67773;95546.72;;;;
2020/09/17 04:33:07;;;;;;;25.8;23.3;;;;;;;14.78;95.67773;95546.72;;;;
2020/09/17 04:34:10;;;;;;;25.8;23.3;;;;;;;14.78;95.67773;95546.72;;;;
2020/09/17 04:35:13;;;;;;;25.8;23.3;;;;;;;14.78;95.67773;95546.72;;;;
2020/09/17 04:36:14;;;;;;;25.8;23.3;;;;;;;14.78;95.67773;95546.72;;;;
2020/09/17 04:37:14;;;;;;;25.8;23.3;;;;;;;14.78;95.67773;95546.72;;;;
2020/09/17 04:38:25;;;;;;;25.8;23.3;;;;;;;14.78;95.67773;95546.72;;;;
2020/09/17 04:39:25;;;;;;;25.8;23.3;;;;;;;14.78;95.67773;95546.72;;;;
2020/09/17 04:40:42;;;;;;;25.75;23.3;;;;;;;15.04;95.7002;95562.74;;;;
2020/09/17 04:41:42;;;;;;;25.75;23.3;;;;;;;15.04;95.7002;95562.74;;;;
2020/09/17 04:42:50;;;;;;;25.75;23.3;;;;;;;15.04;95.7002;95562.74;;;;
2020/09/17 04:43:51;;;;;;;25.75;23.3;;;;;;;15.04;95.7002;95562.74;;;;
2020/09/17 04:44:51;;;;;;;25.75;23.3;;;;;;;15.04;95.7002;95562.74;;;;
2020/09/17 04:46:04;;;;;;;25.75;23.3;;;;;;;15.04;95.7002;95562.74;;;;
2020/09/17 04:47:05;;;;;;;25.75;23.3;;;;;;;15.04;95.7002;95562.74;;;;
2020/09/17 04:48:05;;;;;;;25.75;23.3;;;;;;;15.04;95.7002;95562.74;;;;
2020/09/17 04:49:06;;;;;;;25.75;23.3;;;;;;;15.04;95.7002;95562.74;;;;
2020/09/17 04:50:17;;;;;;;25.75;23.3;;;;;;;15.04;95.7002;95562.74;;;;
2020/09/17 04:51:18;;;;;;;25;22.55;;;;;;;15.29;95.76465;95578.36;;;;
2020/09/17 04:52:22;;;;;;;25;22.55;;;;;;;15.29;95.76465;95578.36;;;;
2020/09/17 04:53:22;;;;;;;25;22.55;;;;;;;15.29;95.76465;95578.36;;;;
2020/09/17 04:54:39;;;;;;;25;22.55;;;;;;;15.29;95.76465;95578.36;;;;
2020/09/17 04:55:39;;;;;;;25;22.55;;;;;;;15.29;95.76465;95578.36;;;;
2020/09/17 04:56:40;;;;;;;25;22.55;;;;;;;15.29;95.76465;95578.36;;;;
2020/09/17 04:57:40;;;;;;;25;22.55;;;;;;;15.29;95.76465;95578.36;;;;
2020/09/17 04:58:41;;;;;;;25;22.55;;;;;;;15.29;95.76465;95578.36;;;;
2020/09/17 04:59:43;;;;;;;25;22.55;;;;;;;15.29;95.76465;95578.36;;;;
2020/09/17 05:00:43;;;;;;;25;22.55;;;;;;;15.29;95.76465;95578.36;;;;
2020/09/17 05:01:48;;;;;;;25;22.55;;;;;;;15.29;95.76465;95578.36;;;;
2020/09/17 05:02:48;;;;;;;25.25;22.85;;;;;;;15.44;95.85254;95594.46;;;;
2020/09/17 05:03:57;;;;;;;25.25;22.85;;;;;;;15.44;95.85254;95594.46;;;;
2020/09/17 05:04:58;;;;;;;25.25;22.85;;;;;;;15.44;95.85254;95594.46;;;;
2020/09/17 05:05:58;;;;;;;25.25;22.85;;;;;;;15.44;95.85254;95594.46;;;;
2020/09/17 05:06:59;;;;;;;25.25;22.85;;;;;;;15.44;95.85254;95594.46;;;;
2020/09/17 05:08:01;;;;;;;25.25;22.85;;;;;;;15.44;95.85254;95594.46;;;;
2020/09/17 05:09:02;;;;;;;25.25;22.85;;;;;;;15.44;95.85254;95594.46;;;;
2020/09/17 05:10:03;;;;;;;25.25;22.85;;;;;;;15.44;95.85254;95594.46;;;;
2020/09/17 05:11:03;;;;;;;25.25;22.85;;;;;;;15.44;95.85254;95594.46;;;;
2020/09/17 05:12:05;;;;;;;25.25;22.85;;;;;;;15.44;95.85254;95594.46;;;;
2020/09/17 05:13:05;;;;;;;23.45;21.2;;;;;;;15.61;95.90039;95599.64;;;;
2020/09/17 05:14:10;;;;;;;23.45;21.2;;;;;;;15.61;95.90039;95599.64;;;;
2020/09/17 05:15:10;;;;;;;23.45;21.2;;;;;;;15.61;95.90039;95599.64;;;;
2020/09/17 05:16:11;;;;;;;23.45;21.2;;;;;;;15.61;95.90039;95599.64;;;;
2020/09/17 05:17:11;;;;;;;23.45;21.2;;;;;;;15.61;95.90039;95599.64;;;;
2020/09/17 05:18:11;;;;;;;23.45;21.2;;;;;;;15.61;95.90039;95599.64;;;;
2020/09/17 05:19:27;;;;;;;23.45;21.2;;;;;;;15.61;95.90039;95599.64;;;;
2020/09/17 05:20:37;;;;;;;23.45;21.2;;;;;;;15.61;95.90039;95599.64;;;;
2020/09/17 05:21:38;;;;;;;23.45;21.2;;;;;;;15.61;95.90039;95599.64;;;;
2020/09/17 05:22:39;;;;;;;23.45;21.2;;;;;;;15.61;95.90039;95599.64;;;;
2020/09/17 05:23:49;;;;;;;21.9;19.85;;;;;;;15.71;96.10352;95606.67;;;;
2020/09/17 05:24:50;;;;;;;21.9;19.85;;;;;;;15.71;96.10352;95606.67;;;;
2020/09/17 05:25:58;;;;;;;21.9;19.85;;;;;;;15.71;96.10352;95606.67;;;;
2020/09/17 05:27:02;;;;;;;21.9;19.85;;;;;;;15.71;96.10352;95606.67;;;;
2020/09/17 05:28:08;;;;;;;21.9;19.85;;;;;;;15.71;96.10352;95606.67;;;;
2020/09/17 05:29:12;;;;;;;21.9;19.85;;;;;;;15.71;96.10352;95606.67;;;;
2020/09/17 05:30:20;;;;;;;21.9;19.85;;;;;;;15.71;96.10352;95606.67;;;;
2020/09/17 05:31:30;;;;;;;21.9;19.85;;;;;;;15.71;96.10352;95606.67;;;;
2020/09/17 05:32:47;;;;;;;21.9;19.85;;;;;;;15.71;96.10352;95606.67;;;;
2020/09/17 05:33:48;;;;;;;21.9;19.85;;;;;;;15.71;96.10352;95606.67;;;;
2020/09/17 05:34:51;;;;;;;22.5;20.35;;;;;;;15.9;95.9502;95616.89;;;;
2020/09/17 05:35:53;;;;;;;22.5;20.35;;;;;;;15.9;95.9502;95616.89;;;;
2020/09/17 05:36:59;;;;;;;22.5;20.35;;;;;;;15.9;95.9502;95616.89;;;;
2020/09/17 05:38:08;;;;;;;22.5;20.35;;;;;;;15.9;95.9502;95616.89;;;;
2020/09/17 05:39:14;;;;;;;22.5;20.35;;;;;;;15.9;95.9502;95616.89;;;;
2020/09/17 05:40:21;;;;;;;22.5;20.35;;;;;;;15.9;95.9502;95616.89;;;;
2020/09/17 05:41:22;;;;;;;22.5;20.35;;;;;;;15.9;95.9502;95616.89;;;;
2020/09/17 05:42:39;;;;;;;22.5;20.35;;;;;;;15.9;95.9502;95616.89;;;;
2020/09/17 05:43:39;;;;;;;22.5;20.35;;;;;;;15.9;95.9502;95616.89;;;;
2020/09/17 05:44:40;;;;;;;22.2;20.2;;;;;;;16.06;95.84473;95626.97;;;;